Monte Vista, Mississippi
Current Conditions -  °F | °C
As of 4:15 PM on Saturday 25 Oct 2014 (Local Time) from KSTF Reporting Station
Clear Clear  
Wind Chill: 79°   Ceiling: Unl
Heat Index: 80°   Visibility: 10mi
Dew Point: 61°   Wind: 6mph
Humidity: 54%   Direction: 280°W
Pressure: 30.05"   Gusts: NA
Location:  33.6047°N, 89.2754°W
Report Text: KSTF 252115Z AUTO 28005KT 10SM CLR 26/16 A3005 RMK AO2
Loading
Personal Weather Stations






























Interactive Weather Map
Tropical Storm Tracking
New forecast layout! Learn more

10-Day Weather Forecast

Advertisements
Track Severe Weather on mobile